createdAt,value
2019-03-30T00:02:05.211Z,81.62
2019-03-30T00:04:33.526Z,81.94
2019-03-30T00:07:01.841Z,81.89
2019-03-30T00:09:30.186Z,81.81
2019-03-30T00:11:58.636Z,81.77
2019-03-30T00:14:27.079Z,81.68
2019-03-30T00:16:55.377Z,81.52
2019-03-30T00:19:34.473Z,81.72
2019-03-30T00:21:54.096Z,82.05
2019-03-30T00:24:22.399Z,82.10
2019-03-30T00:26:50.693Z,81.93
2019-03-30T00:29:19.079Z,81.87
2019-03-30T00:31:47.392Z,81.92
2019-03-30T00:34:15.982Z,81.98
2019-03-30T00:36:44.562Z,81.95
2019-03-30T00:39:12.870Z,82.08
2019-03-30T00:41:41.184Z,82.18
2019-03-30T00:44:09.487Z,82.11
2019-03-30T00:46:37.823Z,82.34
2019-03-30T00:49:06.578Z,82.36
2019-03-30T00:51:34.902Z,82.47
2019-03-30T00:54:03.197Z,82.65
2019-03-30T00:56:31.505Z,82.62
2019-03-30T00:58:59.807Z,82.46
2019-03-30T01:01:28.095Z,82.46
2019-03-30T01:03:56.401Z,82.65
2019-03-30T01:06:24.701Z,82.90
2019-03-30T01:08:53.030Z,83.01
2019-03-30T01:11:21.653Z,83.14
2019-03-30T01:13:49.992Z,83.20
2019-03-30T01:16:18.290Z,83.36
2019-03-30T01:18:46.604Z,83.33
2019-03-30T01:21:14.904Z,83.42
2019-03-30T01:23:43.213Z,83.43
2019-03-30T01:26:11.889Z,83.38
2019-03-30T01:28:40.181Z,83.47
2019-03-30T01:31:08.501Z,83.63
2019-03-30T01:33:36.811Z,83.75
2019-03-30T01:36:05.113Z,83.54
2019-03-30T01:38:33.666Z,83.62
2019-03-30T01:41:02.305Z,83.85
2019-03-30T01:43:30.611Z,84.06
2019-03-30T01:45:59.379Z,84.07
2019-03-30T01:48:27.769Z,83.84
2019-03-30T01:50:56.117Z,83.82
2019-03-30T01:53:24.409Z,84.07
2019-03-30T01:55:52.713Z,84.11
2019-03-30T01:58:21.019Z,84.18
2019-03-30T02:00:49.519Z,84.06
2019-03-30T02:03:17.969Z,83.91
2019-03-30T02:05:46.277Z,83.93
2019-03-30T02:08:14.581Z,84.09
2019-03-30T02:10:45.304Z,84.29
2019-03-30T02:13:13.683Z,84.58
2019-03-30T02:15:41.990Z,84.47
2019-03-30T02:18:10.373Z,84.44
2019-03-30T02:20:43.534Z,84.45
2019-03-30T02:23:11.909Z,84.53
2019-03-30T02:25:40.778Z,84.63
2019-03-30T02:28:09.799Z,84.78
2019-03-30T02:30:38.088Z,84.77
2019-03-30T02:33:06.642Z,84.89
2019-03-30T02:35:35.002Z,84.79
2019-03-30T02:38:03.365Z,84.86
2019-03-30T02:40:31.654Z,84.91
2019-03-30T02:43:00.506Z,84.92
2019-03-30T02:45:29.262Z,85.05
2019-03-30T02:47:57.843Z,85.11
2019-03-30T02:50:26.154Z,85.28
2019-03-30T02:52:54.531Z,85.32
2019-03-30T02:55:22.840Z,85.21
2019-03-30T02:57:51.189Z,85.19
2019-03-30T03:00:20.095Z,85.11
2019-03-30T03:02:48.395Z,85.05
2019-03-30T03:05:16.953Z,84.96
2019-03-30T03:07:45.482Z,84.99
2019-03-30T03:10:16.325Z,84.98
2019-03-30T03:12:44.628Z,85.11
2019-03-30T03:15:13.008Z,85.05
2019-03-30T03:17:41.303Z,85.21
2019-03-30T03:20:10.242Z,85.41
2019-03-30T03:22:38.562Z,85.73
2019-03-30T03:25:07.136Z,85.73
2019-03-30T03:27:35.473Z,85.55
2019-03-30T03:30:04.330Z,85.64
2019-03-30T03:32:32.656Z,85.51
2019-03-30T03:35:01.037Z,85.58
2019-03-30T03:37:43.205Z,85.71
2019-03-30T03:39:59.372Z,85.71
2019-03-30T03:42:27.697Z,85.52
2019-03-30T03:44:56.287Z,85.52
2019-03-30T03:47:24.605Z,85.60
2019-03-30T03:49:52.898Z,85.87
2019-03-30T03:52:21.370Z,85.91
2019-03-30T03:54:50.298Z,85.67
2019-03-30T03:57:19.574Z,85.74
2019-03-30T03:59:49.642Z,85.87
2019-03-30T04:02:18.341Z,85.80
2019-03-30T04:04:47.773Z,85.82
2019-03-30T04:07:17.799Z,86.04
2019-03-30T04:09:47.718Z,86.08
2019-03-30T04:12:17.093Z,86.09
2019-03-30T04:14:48.921Z,86.22
2019-03-30T04:17:17.248Z,86.06
2019-03-30T04:19:45.557Z,86.05
2019-03-30T04:22:13.883Z,86.14
2019-03-30T04:24:42.187Z,86.26
2019-03-30T04:27:10.505Z,86.23
2019-03-30T04:29:38.826Z,86.24
2019-03-30T04:32:07.286Z,86.22
2019-03-30T04:34:35.678Z,86.26
2019-03-30T04:37:03.979Z,86.35
2019-03-30T04:39:32.312Z,86.44
2019-03-30T04:42:00.600Z,86.53
2019-03-30T04:44:29.196Z,86.56
2019-03-30T04:46:57.554Z,86.54
2019-03-30T04:49:25.857Z,86.26
2019-03-30T04:51:57.689Z,86.15
2019-03-30T04:54:24.506Z,86.29
2019-03-30T04:56:52.820Z,86.49
2019-03-30T04:59:21.116Z,86.42
2019-03-30T05:01:49.676Z,86.25
2019-03-30T05:04:18.054Z,86.50
2019-03-30T05:06:46.371Z,86.57
2019-03-30T05:09:14.657Z,86.78
2019-03-30T05:11:42.991Z,86.51
2019-03-30T05:14:11.277Z,86.55
2019-03-30T05:16:39.606Z,86.43
2019-03-30T05:19:07.930Z,86.26
2019-03-30T05:21:36.327Z,86.37
2019-03-30T05:24:04.622Z,86.43
2019-03-30T05:26:32.912Z,86.32
2019-03-30T05:29:01.233Z,86.35
2019-03-30T05:31:29.603Z,86.29
2019-03-30T05:33:57.941Z,86.14
2019-03-30T05:36:26.488Z,86.28
2019-03-30T05:38:54.797Z,86.30
2019-03-30T05:41:23.097Z,86.16
2019-03-30T05:43:51.408Z,85.98
2019-03-30T05:46:19.733Z,85.94
2019-03-30T05:48:48.063Z,85.96
2019-03-30T05:51:16.357Z,85.83
2019-03-30T05:53:44.661Z,85.70
2019-03-30T05:56:12.973Z,85.52
2019-03-30T05:58:41.269Z,85.33
2019-03-30T06:01:09.637Z,85.25
2019-03-30T06:03:37.971Z,85.15
2019-03-30T06:06:06.284Z,85.01
2019-03-30T06:08:34.584Z,84.91
2019-03-30T06:11:03.153Z,84.77
2019-03-30T06:13:31.469Z,84.62
2019-03-30T06:15:59.756Z,84.50
2019-03-30T06:18:28.058Z,84.49
2019-03-30T06:20:56.374Z,84.28
2019-03-30T06:23:24.679Z,84.16
2019-03-30T06:25:52.989Z,83.99
2019-03-30T06:28:21.389Z,83.89
2019-03-30T06:30:49.722Z,83.75
2019-03-30T06:33:18.049Z,83.53
2019-03-30T06:35:46.700Z,83.47
2019-03-30T06:38:15.286Z,83.50
2019-03-30T06:40:43.836Z,83.43
2019-03-30T06:43:12.145Z,83.22
2019-03-30T06:45:40.470Z,83.01
2019-03-30T06:48:08.757Z,82.80
2019-03-30T06:50:37.083Z,82.82
2019-03-30T06:53:05.392Z,82.84
2019-03-30T06:55:33.711Z,82.75
2019-03-30T06:58:02.027Z,81.72
2019-03-30T07:00:35.121Z,82.12
2019-03-30T07:03:04.873Z,82.28
2019-03-30T07:05:36.354Z,81.59
2019-03-30T07:08:04.769Z,81.26
2019-03-30T07:10:33.225Z,81.22
2019-03-30T07:13:03.445Z,80.63
2019-03-30T07:15:33.082Z,79.94
2019-03-30T07:18:01.557Z,79.77
2019-03-30T07:20:30.217Z,79.34
2019-03-30T07:23:11.390Z,79.10
2019-03-30T07:25:28.913Z,78.91
2019-03-30T07:27:57.604Z,79.23
2019-03-30T07:30:25.915Z,78.91
2019-03-30T07:32:54.408Z,78.44
2019-03-30T07:35:22.722Z,78.24
2019-03-30T07:37:51.059Z,77.44
2019-03-30T07:40:19.348Z,76.98
2019-03-30T07:42:47.661Z,77.12
2019-03-30T07:45:16.152Z,76.97
2019-03-30T07:47:44.458Z,76.31
2019-03-30T07:50:13.223Z,75.71
2019-03-30T07:52:41.535Z,76.05
2019-03-30T07:55:09.992Z,75.17
2019-03-30T07:57:38.291Z,74.62
2019-03-30T08:00:08.376Z,74.41
2019-03-30T08:02:36.690Z,73.78
2019-03-30T08:05:06.874Z,73.23
2019-03-30T08:07:35.687Z,72.84
2019-03-30T08:10:05.015Z,72.64
2019-03-30T08:12:33.478Z,72.27
2019-03-30T08:15:01.804Z,72.26
2019-03-30T08:17:30.409Z,72.03
2019-03-30T08:19:58.712Z,71.72
2019-03-30T08:22:27.039Z,71.21
2019-03-30T08:24:55.646Z,70.30
2019-03-30T08:27:23.963Z,69.85
2019-03-30T08:29:52.272Z,69.38
2019-03-30T08:32:20.584Z,68.89
2019-03-30T08:34:49.169Z,67.88
2019-03-30T08:37:17.506Z,67.30
2019-03-30T08:39:46.124Z,67.08
2019-03-30T08:42:14.460Z,66.46
2019-03-30T08:44:42.830Z,65.90
2019-03-30T08:47:11.455Z,65.39
2019-03-30T08:49:39.773Z,65.00
2019-03-30T08:52:08.436Z,64.70
2019-03-30T08:54:36.760Z,64.11
2019-03-30T08:57:05.063Z,63.65
2019-03-30T08:59:33.399Z,63.90
2019-03-30T09:02:01.712Z,63.04
2019-03-30T09:04:30.019Z,62.25
2019-03-30T09:06:58.596Z,61.72
2019-03-30T09:09:26.906Z,61.15
2019-03-30T09:11:55.206Z,60.56
2019-03-30T09:14:23.509Z,59.90
2019-03-30T09:16:51.834Z,59.64
2019-03-30T09:19:20.136Z,58.73
2019-03-30T09:21:48.449Z,57.76
2019-03-30T09:24:17.040Z,57.14
2019-03-30T09:26:45.346Z,56.26
2019-03-30T09:29:13.721Z,55.94
2019-03-30T09:31:42.047Z,55.08
2019-03-30T09:34:10.650Z,54.57
2019-03-30T09:36:39.098Z,54.36
2019-03-30T09:39:07.488Z,53.71
2019-03-30T09:41:36.096Z,53.71
2019-03-30T09:44:04.405Z,53.58
2019-03-30T09:46:32.708Z,53.46
2019-03-30T09:49:00.997Z,52.82
2019-03-30T09:51:29.320Z,52.06
2019-03-30T09:53:57.629Z,50.28
2019-03-30T09:56:26.260Z,49.91
2019-03-30T09:58:54.561Z,49.74
2019-03-30T10:01:22.940Z,49.86
2019-03-30T10:03:51.282Z,49.47
2019-03-30T10:06:19.600Z,49.11
2019-03-30T10:08:47.974Z,49.14
2019-03-30T10:11:16.302Z,49.34
2019-03-30T10:13:44.626Z,49.99
2019-03-30T10:16:13.393Z,49.42
2019-03-30T10:18:41.713Z,48.86
2019-03-30T10:21:10.018Z,48.18
2019-03-30T10:23:38.350Z,47.58
2019-03-30T10:26:06.652Z,47.70
2019-03-30T10:28:34.961Z,47.01
2019-03-30T10:31:03.262Z,46.53
2019-03-30T10:33:31.614Z,47.00
2019-03-30T10:35:59.913Z,46.62
2019-03-30T10:38:28.239Z,46.63
2019-03-30T10:40:56.544Z,46.68
2019-03-30T10:43:24.869Z,46.18
2019-03-30T10:45:53.258Z,46.02
2019-03-30T10:48:21.574Z,45.62
2019-03-30T10:50:50.288Z,45.23
2019-03-30T10:53:18.599Z,45.52
2019-03-30T10:55:46.887Z,45.55
2019-03-30T10:58:15.173Z,45.56
2019-03-30T11:00:43.549Z,45.43
2019-03-30T11:03:11.856Z,45.08
2019-03-30T11:05:40.483Z,45.41
2019-03-30T11:08:08.805Z,45.46
2019-03-30T11:10:37.123Z,45.33
2019-03-30T11:13:05.653Z,45.25
2019-03-30T11:15:34.502Z,45.21
2019-03-30T11:18:02.860Z,45.69
2019-03-30T11:20:31.179Z,45.73
2019-03-30T11:22:59.824Z,45.68
2019-03-30T11:25:28.118Z,45.52
2019-03-30T11:27:56.438Z,45.31
2019-03-30T11:30:24.783Z,44.85
2019-03-30T11:32:53.083Z,44.78
2019-03-30T11:35:21.383Z,44.93
2019-03-30T11:37:49.708Z,44.59
2019-03-30T11:40:17.998Z,44.52
2019-03-30T11:42:46.380Z,44.80
2019-03-30T11:45:15.028Z,45.09
2019-03-30T11:47:43.619Z,45.04
2019-03-30T11:50:12.090Z,45.24
2019-03-30T11:52:40.416Z,45.32
2019-03-30T11:55:21.219Z,45.42
2019-03-30T11:57:38.843Z,45.40
2019-03-30T12:00:07.871Z,45.35
2019-03-30T12:02:36.183Z,44.41
2019-03-30T12:05:06.520Z,43.82
2019-03-30T12:07:34.873Z,43.30
2019-03-30T12:10:03.445Z,42.71
2019-03-30T12:12:31.760Z,43.20
2019-03-30T12:15:00.495Z,43.82
2019-03-30T12:17:28.719Z,44.12
2019-03-30T12:19:57.035Z,44.17
2019-03-30T12:22:25.343Z,43.94
2019-03-30T12:24:53.654Z,44.89
2019-03-30T12:27:22.385Z,43.98
2019-03-30T12:29:50.692Z,42.66
2019-03-30T12:32:19.339Z,42.67
2019-03-30T12:34:47.643Z,42.46
2019-03-30T12:37:15.946Z,42.24
2019-03-30T12:39:44.254Z,41.76
2019-03-30T12:42:12.543Z,41.39
2019-03-30T12:44:40.858Z,41.26
2019-03-30T12:47:10.494Z,41.55
2019-03-30T12:49:38.950Z,42.58
2019-03-30T12:52:07.255Z,42.05
2019-03-30T12:54:35.627Z,41.33
2019-03-30T12:57:04.262Z,41.33
2019-03-30T12:59:32.578Z,40.70
2019-03-30T13:02:00.882Z,40.41
2019-03-30T13:04:29.186Z,40.28
2019-03-30T13:06:57.490Z,39.91
2019-03-30T13:09:25.902Z,39.85
2019-03-30T13:11:54.194Z,40.09
2019-03-30T13:14:22.522Z,39.89
2019-03-30T13:16:50.815Z,39.94
2019-03-30T13:19:19.207Z,40.13
2019-03-30T13:21:53.072Z,39.86
2019-03-30T13:24:17.583Z,40.90
2019-03-30T13:26:45.897Z,41.26
2019-03-30T13:29:14.514Z,40.56
2019-03-30T13:31:42.830Z,40.48
2019-03-30T13:34:11.117Z,40.68
2019-03-30T13:36:45.122Z,39.52
2019-03-30T13:39:13.583Z,40.58
2019-03-30T13:41:41.891Z,39.86
2019-03-30T13:44:10.513Z,39.81
2019-03-30T13:46:38.841Z,39.77
2019-03-30T13:49:07.219Z,40.56
2019-03-30T13:51:35.613Z,39.08
2019-03-30T13:54:04.339Z,39.05
2019-03-30T13:56:32.706Z,39.20
2019-03-30T13:59:01.074Z,38.96
2019-03-30T14:01:29.384Z,39.18
2019-03-30T14:03:57.699Z,39.56
2019-03-30T14:06:25.987Z,39.72
2019-03-30T14:08:54.613Z,40.01
2019-03-30T14:11:22.937Z,39.84
2019-03-30T14:13:51.240Z,39.61
2019-03-30T14:16:19.533Z,39.66
2019-03-30T14:18:47.848Z,39.70
2019-03-30T14:21:16.225Z,39.43
2019-03-30T14:23:44.597Z,39.13
2019-03-30T14:26:13.028Z,39.02
2019-03-30T14:28:41.645Z,38.92
2019-03-30T14:31:09.968Z,38.83
2019-03-30T14:33:38.271Z,38.81
2019-03-30T14:36:06.663Z,38.30
2019-03-30T14:38:34.975Z,38.66
2019-03-30T14:41:03.963Z,38.57
2019-03-30T14:43:32.368Z,38.64
2019-03-30T14:46:00.692Z,38.26
2019-03-30T14:48:29.005Z,38.13
2019-03-30T14:50:57.666Z,37.51
2019-03-30T14:53:26.332Z,37.58
2019-03-30T14:55:54.716Z,37.58
2019-03-30T14:58:23.088Z,37.85
2019-03-30T15:00:51.410Z,37.96
2019-03-30T15:03:19.719Z,38.04
2019-03-30T15:05:48.093Z,38.20
2019-03-30T15:08:16.417Z,38.65
2019-03-30T15:10:44.699Z,38.21
2019-03-30T15:13:13.270Z,38.90
2019-03-30T15:15:41.566Z,38.88
2019-03-30T15:18:09.887Z,38.82
2019-03-30T15:20:38.178Z,38.91
2019-03-30T15:23:06.497Z,39.37
2019-03-30T15:25:34.802Z,39.02
2019-03-30T15:28:03.114Z,39.21
2019-03-30T15:30:31.442Z,39.66
2019-03-30T15:33:03.149Z,40.04
2019-03-30T15:35:29.785Z,40.33
2019-03-30T15:37:58.123Z,40.73
2019-03-30T15:40:26.411Z,40.57
2019-03-30T15:42:54.757Z,40.47
2019-03-30T15:45:23.054Z,40.93
2019-03-30T15:47:51.362Z,40.74
2019-03-30T15:50:20.261Z,40.75
2019-03-30T15:52:48.601Z,40.86
2019-03-30T15:55:16.922Z,41.02
2019-03-30T15:57:45.235Z,41.31
2019-03-30T16:00:15.606Z,41.37
2019-03-30T16:02:43.950Z,41.30
2019-03-30T16:05:15.506Z,41.59
2019-03-30T16:07:42.722Z,41.87
2019-03-30T16:10:11.279Z,42.00
2019-03-30T16:12:39.618Z,42.39
2019-03-30T16:15:09.184Z,42.38
2019-03-30T16:17:37.561Z,42.57
2019-03-30T16:20:07.001Z,42.65
2019-03-30T16:22:35.389Z,42.73
2019-03-30T16:25:04.955Z,42.68
2019-03-30T16:27:33.551Z,43.03
2019-03-30T16:30:02.246Z,42.72
2019-03-30T16:32:30.566Z,42.66
2019-03-30T16:34:58.857Z,42.75
2019-03-30T16:37:27.165Z,42.70
2019-03-30T16:39:55.490Z,42.84
2019-03-30T16:42:23.803Z,43.17
2019-03-30T16:44:52.405Z,42.98
2019-03-30T16:47:20.739Z,43.22
2019-03-30T16:49:49.063Z,43.37
2019-03-30T16:52:17.466Z,43.72
2019-03-30T16:54:46.030Z,43.64
2019-03-30T16:57:14.362Z,43.60
2019-03-30T16:59:42.655Z,43.47
2019-03-30T17:02:10.996Z,43.63
2019-03-30T17:04:39.657Z,43.74
2019-03-30T17:07:08.209Z,43.76
2019-03-30T17:09:36.805Z,43.83
2019-03-30T17:12:05.093Z,43.97
2019-03-30T17:14:33.419Z,44.12
2019-03-30T17:17:01.776Z,44.11
2019-03-30T17:19:30.087Z,44.01
2019-03-30T17:21:58.410Z,44.11
2019-03-30T17:24:26.727Z,44.09
2019-03-30T17:26:55.352Z,43.83
2019-03-30T17:29:23.939Z,43.51
2019-03-30T17:31:52.233Z,43.72
2019-03-30T17:34:20.910Z,43.94
2019-03-30T17:36:49.216Z,44.34
2019-03-30T17:39:17.523Z,44.71
2019-03-30T17:41:46.133Z,45.00
2019-03-30T17:44:14.542Z,45.43
2019-03-30T17:46:42.846Z,45.60
2019-03-30T17:49:11.475Z,45.78
2019-03-30T17:51:39.796Z,46.23
2019-03-30T17:54:08.114Z,46.54
2019-03-30T17:56:36.413Z,46.48
2019-03-30T17:59:04.939Z,46.78
2019-03-30T18:01:33.242Z,46.89
2019-03-30T18:04:01.582Z,47.09
2019-03-30T18:06:29.886Z,47.29
2019-03-30T18:08:58.255Z,47.54
2019-03-30T18:11:26.547Z,47.78
2019-03-30T18:13:55.156Z,48.24
2019-03-30T18:16:23.450Z,48.28
2019-03-30T18:18:52.126Z,48.83
2019-03-30T18:21:20.431Z,49.08
2019-03-30T18:23:48.773Z,49.40
2019-03-30T18:26:17.080Z,49.72
2019-03-30T18:28:45.635Z,50.13
2019-03-30T18:31:14.023Z,50.45
2019-03-30T18:33:42.918Z,51.25
2019-03-30T18:36:12.764Z,51.94
2019-03-30T18:38:41.081Z,52.53
2019-03-30T18:41:09.383Z,52.77
2019-03-30T18:43:37.696Z,53.09
2019-03-30T18:46:06.078Z,53.84
2019-03-30T18:48:34.367Z,54.53
2019-03-30T18:51:02.700Z,54.99
2019-03-30T18:53:31.003Z,55.37
2019-03-30T18:55:59.542Z,55.83
2019-03-30T18:58:40.947Z,56.16
2019-03-30T19:00:58.255Z,56.64
2019-03-30T19:03:26.572Z,57.17
2019-03-30T19:05:54.936Z,57.66
2019-03-30T19:08:23.272Z,58.19
2019-03-30T19:10:51.579Z,58.60
2019-03-30T19:13:19.907Z,58.93
2019-03-30T19:15:48.216Z,59.32
2019-03-30T19:18:16.782Z,59.68
2019-03-30T19:20:45.125Z,60.03
2019-03-30T19:23:13.423Z,60.31
2019-03-30T19:25:41.743Z,60.46
2019-03-30T19:28:10.504Z,60.79
2019-03-30T19:30:41.940Z,61.01
2019-03-30T19:33:08.863Z,61.35
2019-03-30T19:35:37.225Z,61.77
2019-03-30T19:38:05.540Z,62.11
2019-03-30T19:40:34.160Z,62.45
2019-03-30T19:43:02.558Z,62.71
2019-03-30T19:45:30.862Z,62.88
2019-03-30T19:47:59.684Z,63.03
2019-03-30T19:50:28.109Z,63.35
2019-03-30T19:52:56.419Z,63.70
2019-03-30T19:55:24.745Z,63.96
2019-03-30T19:57:53.053Z,64.16
2019-03-30T20:00:21.702Z,64.39
2019-03-30T20:02:50.273Z,64.58
2019-03-30T20:05:18.726Z,64.88
2019-03-30T20:07:47.337Z,65.08
2019-03-30T20:10:15.922Z,65.31
2019-03-30T20:12:44.600Z,65.40
2019-03-30T20:15:12.978Z,65.55
2019-03-30T20:17:41.560Z,65.72
2019-03-30T20:20:10.051Z,65.86
2019-03-30T20:22:38.361Z,66.02
2019-03-30T20:25:09.016Z,65.87
2019-03-30T20:27:37.315Z,65.89
2019-03-30T20:30:09.747Z,65.56
2019-03-30T20:32:38.136Z,65.58
2019-03-30T20:35:08.094Z,65.62
2019-03-30T20:37:36.671Z,65.58
2019-03-30T20:40:09.215Z,65.49
2019-03-30T20:42:37.601Z,65.45
2019-03-30T20:45:07.436Z,65.57
2019-03-30T20:47:35.837Z,65.38
2019-03-30T20:50:06.170Z,65.38
2019-03-30T20:52:34.501Z,65.63
2019-03-30T20:55:02.795Z,65.82
2019-03-30T20:57:31.120Z,65.92
2019-03-30T20:59:59.494Z,65.93
2019-03-30T21:02:27.820Z,65.93
2019-03-30T21:04:56.165Z,65.98
2019-03-30T21:07:24.831Z,65.85
2019-03-30T21:09:53.160Z,65.80
2019-03-30T21:12:21.783Z,65.98
2019-03-30T21:14:50.104Z,65.82
2019-03-30T21:17:18.407Z,65.78
2019-03-30T21:19:46.754Z,65.73
2019-03-30T21:22:15.052Z,65.83
2019-03-30T21:24:43.664Z,66.05
2019-03-30T21:27:11.986Z,66.49
2019-03-30T21:29:53.636Z,66.74
2019-03-30T21:32:10.376Z,66.85
2019-03-30T21:34:38.737Z,67.15
2019-03-30T21:37:07.393Z,67.25
2019-03-30T21:39:35.988Z,67.60
2019-03-30T21:42:04.315Z,67.88
2019-03-30T21:44:32.945Z,68.18
2019-03-30T21:47:01.267Z,68.32
2019-03-30T21:49:31.178Z,68.38
2019-03-30T21:51:59.551Z,68.41
2019-03-30T21:54:28.899Z,68.43
2019-03-30T21:56:57.218Z,68.39
2019-03-30T21:59:25.590Z,68.47
2019-03-30T22:01:53.898Z,68.70
2019-03-30T22:04:22.283Z,68.68
2019-03-30T22:06:50.914Z,68.55
2019-03-30T22:09:19.245Z,68.70
2019-03-30T22:11:47.620Z,68.51
2019-03-30T22:14:15.996Z,68.63
2019-03-30T22:16:44.292Z,68.43
2019-03-30T22:19:12.692Z,68.46
2019-03-30T22:21:40.986Z,68.53
2019-03-30T22:24:11.121Z,68.45
2019-03-30T22:26:39.508Z,68.64
2019-03-30T22:29:07.849Z,68.62
2019-03-30T22:31:36.162Z,68.95
2019-03-30T22:34:04.454Z,69.09
2019-03-30T22:36:32.782Z,69.14
2019-03-30T22:39:01.076Z,69.02
2019-03-30T22:41:29.478Z,68.81
2019-03-30T22:43:57.846Z,68.86
2019-03-30T22:46:26.172Z,68.90
2019-03-30T22:48:54.785Z,69.07
2019-03-30T22:51:23.093Z,69.14
2019-03-30T22:53:51.399Z,69.14
2019-03-30T22:56:19.716Z,69.37
2019-03-30T22:58:48.291Z,69.46
2019-03-30T23:01:18.312Z,69.35
2019-03-30T23:03:46.702Z,69.37
2019-03-30T23:06:15.285Z,69.58
2019-03-30T23:08:43.592Z,69.72
2019-03-30T23:11:11.966Z,69.85
2019-03-30T23:13:40.280Z,70.11
2019-03-30T23:16:08.633Z,70.11
2019-03-30T23:18:36.945Z,70.27
2019-03-30T23:21:05.241Z,70.34
2019-03-30T23:23:33.581Z,70.26
2019-03-30T23:26:02.110Z,70.50
2019-03-30T23:28:30.426Z,70.63
2019-03-30T23:30:58.750Z,70.53
2019-03-30T23:33:27.339Z,70.59
2019-03-30T23:35:55.630Z,70.95
2019-03-30T23:38:24.197Z,71.21
2019-03-30T23:40:52.543Z,71.31
2019-03-30T23:43:20.863Z,71.47
2019-03-30T23:45:49.336Z,71.80
2019-03-30T23:48:17.646Z,71.95
2019-03-30T23:50:45.940Z,72.17
2019-03-30T23:53:14.265Z,72.33
2019-03-30T23:55:42.561Z,72.33
2019-03-30T23:58:10.867Z,72.39
